Time;durP1;ratioP1;P1;durP2;ratioP2;P2;SDS_P1;SDS_P2;PMS_P1;PMS_P2;Temp;Humidity;BMP_temperature;BMP_pressure;BME280_temperature;BME280_humidity;BME280_pressure;Samples;Min_cycle;Max_cycle;Signal;HPM_P1;HPM_P2
2021/03/21 00:00:45;;;;;;;4.97;3.17;;;1.80;54.20;;;;;;5091149;28;20119;-63
2021/03/21 00:03:11;;;;;;;7.70;3.25;;;1.80;54.30;;;;;;5092030;28;20024;-62
2021/03/21 00:05:38;;;;;;;6.57;3.65;;;1.80;54.50;;;;;;5092005;28;20488;-62
2021/03/21 00:08:25;;;;;;;5.45;3.15;;;1.80;54.00;;;;;;5090758;28;20135;-62
2021/03/21 00:10:54;;;;;;;4.70;3.22;;;1.80;54.30;;;;;;5092701;28;20114;-63
2021/03/21 00:13:21;;;;;;;7.68;2.97;;;1.80;54.10;;;;;;5089495;28;20016;-63
2021/03/21 00:15:48;;;;;;;6.60;2.85;;;1.80;53.70;;;;;;5089008;28;20036;-63
2021/03/21 00:18:15;;;;;;;5.78;3.28;;;1.80;53.80;;;;;;5090273;28;20055;-63
2021/03/21 00:20:41;;;;;;;5.78;2.92;;;1.80;53.80;;;;;;5090499;28;20028;-61
2021/03/21 00:23:07;;;;;;;6.30;3.28;;;1.80;54.20;;;;;;5095074;28;20031;-63
2021/03/21 00:25:35;;;;;;;5.18;3.03;;;1.80;54.00;;;;;;5079164;28;20339;-63
2021/03/21 00:28:03;;;;;;;6.93;2.85;;;1.80;54.00;;;;;;5091486;28;20385;-63
2021/03/21 00:30:32;;;;;;;5.72;2.92;;;1.90;53.70;;;;;;5089685;28;20028;-63
2021/03/21 00:32:58;;;;;;;5.38;3.03;;;1.90;54.30;;;;;;5090177;28;20106;-63
2021/03/21 00:35:24;;;;;;;4.40;2.70;;;1.90;54.50;;;;;;5094037;28;20138;-66
2021/03/21 00:37:54;;;;;;;4.53;2.78;;;1.90;54.70;;;;;;5090736;28;20032;-63
2021/03/21 00:40:20;;;;;;;5.15;3.30;;;1.90;54.10;;;;;;5091179;28;20055;-66
2021/03/21 00:42:47;;;;;;;7.18;3.30;;;1.90;54.30;;;;;;5094367;28;20515;-61
2021/03/21 00:45:15;;;;;;;5.72;2.95;;;1.90;54.60;;;;;;5098231;28;20060;-63
2021/03/21 00:47:40;;;;;;;4.82;3.22;;;1.90;54.00;;;;;;5082232;28;20020;-63
2021/03/21 00:50:09;;;;;;;5.82;3.25;;;1.90;53.90;;;;;;5095273;28;20504;-63
2021/03/21 00:52:35;;;;;;;6.88;3.15;;;1.90;53.60;;;;;;5092752;28;20373;-63
2021/03/21 00:55:01;;;;;;;4.35;2.88;;;1.90;53.80;;;;;;5093174;28;20028;-63
2021/03/21 00:57:26;;;;;;;6.18;3.28;;;1.90;53.30;;;;;;5094624;28;21075;-66
2021/03/21 00:59:52;;;;;;;4.20;3.08;;;1.90;53.70;;;;;;5094105;28;20028;-64
2021/03/21 01:02:17;;;;;;;5.82;3.28;;;1.90;53.90;;;;;;5093910;28;20392;-63
2021/03/21 01:04:43;;;;;;;5.85;3.22;;;1.90;53.60;;;;;;5084225;28;20039;-61
2021/03/21 01:07:09;;;;;;;8.00;3.05;;;1.90;53.50;;;;;;5096764;28;20024;-63
2021/03/21 01:09:34;;;;;;;5.43;3.40;;;1.90;53.90;;;;;;5094039;28;20082;-63
2021/03/21 01:12:00;;;;;;;6.60;3.08;;;1.90;54.40;;;;;;5093452;28;20052;-62
2021/03/21 01:14:26;;;;;;;4.90;3.00;;;1.90;53.60;;;;;;5092361;28;20478;-65
2021/03/21 01:16:52;;;;;;;6.97;3.28;;;1.90;54.00;;;;;;5097588;28;20024;-63
2021/03/21 01:19:20;;;;;;;4.60;3.05;;;2.00;53.90;;;;;;5095378;28;20028;-63
2021/03/21 01:21:47;;;;;;;4.95;3.10;;;2.00;53.20;;;;;;5092430;28;20099;-62
2021/03/21 01:24:15;;;;;;;4.68;2.80;;;2.00;53.80;;;;;;5093557;28;20039;-63
2021/03/21 01:26:41;;;;;;;6.07;3.17;;;2.00;53.70;;;;;;5092250;28;20484;-62
2021/03/21 01:29:07;;;;;;;5.68;3.60;;;1.90;54.00;;;;;;5082601;28;20032;-64
2021/03/21 01:31:33;;;;;;;9.35;3.53;;;1.90;53.90;;;;;;5093551;28;20081;-63
2021/03/21 01:33:59;;;;;;;7.45;3.10;;;1.90;54.00;;;;;;5095031;28;20031;-63
2021/03/21 01:36:28;;;;;;;6.15;3.05;;;1.90;53.80;;;;;;5093553;28;20028;-66
2021/03/21 01:38:55;;;;;;;6.40;3.20;;;1.90;53.90;;;;;;5082984;28;20054;-63
2021/03/21 01:41:30;;;;;;;5.70;2.85;;;1.90;53.90;;;;;;5095339;28;20075;-64
2021/03/21 01:43:55;;;;;;;5.72;3.30;;;1.90;53.60;;;;;;5094990;28;20385;-63
2021/03/21 01:46:29;;;;;;;4.45;2.95;;;1.90;53.70;;;;;;5093030;28;20086;-62
2021/03/21 01:48:56;;;;;;;7.93;2.97;;;1.90;54.20;;;;;;5093973;28;20082;-64
2021/03/21 01:51:33;;;;;;;6.90;3.58;;;1.90;54.00;;;;;;5094237;28;20032;-63
2021/03/21 01:54:05;;;;;;;6.63;3.42;;;1.90;54.40;;;;;;5093313;28;20040;-63
2021/03/21 01:56:33;;;;;;;5.03;3.05;;;1.90;54.10;;;;;;5093869;28;20048;-62
2021/03/21 01:59:06;;;;;;;4.60;2.90;;;1.90;54.30;;;;;;5092138;28;20040;-63
2021/03/21 02:01:32;;;;;;;6.53;3.10;;;1.90;54.20;;;;;;5097233;28;20032;-63
2021/03/21 02:03:58;;;;;;;5.45;3.05;;;2.00;54.30;;;;;;5093707;28;20027;-63
2021/03/21 02:06:36;;;;;;;4.68;3.00;;;2.00;54.70;;;;;;5093101;28;20040;-66
2021/03/21 02:09:46;;;;;;;4.68;3.22;;;2.00;54.00;;;;;;5091224;28;20431;-62
2021/03/21 02:12:18;;;;;;;8.23;3.35;;;2.00;54.70;;;;;;4991703;28;20151;-62
2021/03/21 02:15:20;;;;;;;4.93;3.08;;;2.00;54.60;;;;;;5081131;28;20148;-63
2021/03/21 02:18:11;;;;;;;4.55;2.75;;;2.00;54.70;;;;;;5096068;28;20027;-63
2021/03/21 02:21:19;;;;;;;8.00;2.85;;;1.90;55.40;;;;;;5090652;28;20449;-64
2021/03/21 02:24:01;;;;;;;4.82;3.17;;;1.90;55.20;;;;;;5093968;28;20472;-64
2021/03/21 02:26:51;;;;;;;4.05;3.20;;;1.90;55.50;;;;;;5090972;28;20029;-66
2021/03/21 02:29:27;;;;;;;7.60;3.88;;;1.90;55.20;;;;;;5090882;28;20040;-63
2021/03/21 02:32:07;;;;;;;6.10;3.78;;;1.90;55.10;;;;;;5091896;28;20133;-64
2021/03/21 02:34:58;;;;;;;3.58;2.53;;;1.90;55.20;;;;;;5092972;28;20154;-64
2021/03/21 02:37:47;;;;;;;8.77;2.95;;;1.90;55.90;;;;;;5092634;28;20047;-66
2021/03/21 02:40:39;;;;;;;5.10;3.17;;;1.90;55.20;;;;;;5090225;28;20062;-64
2021/03/21 02:43:12;;;;;;;4.85;2.88;;;1.90;55.10;;;;;;5090035;28;20031;-64
2021/03/21 02:45:40;;;;;;;7.32;3.17;;;1.90;53.80;;;;;;5087791;28;20532;-64
2021/03/21 02:48:17;;;;;;;4.50;2.92;;;1.90;53.90;;;;;;5093458;28;20058;-63
2021/03/21 02:50:52;;;;;;;5.72;2.70;;;2.00;53.80;;;;;;5101589;28;20027;-62
2021/03/21 02:53:28;;;;;;;4.22;2.88;;;2.00;53.60;;;;;;5097641;28;20060;-62
2021/03/21 02:55:58;;;;;;;4.20;2.78;;;1.90;54.20;;;;;;5092037;28;20153;-62
2021/03/21 02:58:32;;;;;;;5.15;2.80;;;1.90;53.90;;;;;;5098312;28;20109;-64
2021/03/21 03:01:05;;;;;;;4.78;2.90;;;1.90;53.60;;;;;;5109995;28;20492;-62
2021/03/21 03:03:32;;;;;;;5.72;3.28;;;1.90;54.10;;;;;;5102324;28;20076;-65
2021/03/21 03:06:03;;;;;;;5.95;3.50;;;1.90;54.20;;;;;;5093447;28;20027;-63
2021/03/21 03:08:36;;;;;;;9.48;2.88;;;1.90;54.60;;;;;;5090406;28;20473;-64
2021/03/21 03:11:12;;;;;;;5.20;3.08;;;1.90;54.50;;;;;;5092219;28;20058;-66
2021/03/21 03:13:42;;;;;;;8.80;3.33;;;1.90;54.50;;;;;;5095676;28;20140;-62
2021/03/21 03:16:52;;;;;;;4.30;2.38;;;1.90;54.40;;;;;;5102943;28;20024;-63
2021/03/21 03:19:39;;;;;;;5.07;2.78;;;2.00;54.50;;;;;;5028555;28;20055;-64
2021/03/21 03:22:27;;;;;;;4.50;3.00;;;2.00;54.40;;;;;;5028792;28;20029;-63
2021/03/21 03:25:20;;;;;;;3.83;2.78;;;1.90;54.50;;;;;;5068394;28;20130;-63
2021/03/21 03:28:11;;;;;;;5.63;2.70;;;1.90;55.10;;;;;;5109018;28;20043;-62
2021/03/21 03:30:44;;;;;;;4.60;2.83;;;1.90;55.10;;;;;;5090737;28;20036;-63
2021/03/21 03:33:11;;;;;;;5.45;2.80;;;1.90;55.20;;;;;;5091321;28;20066;-67
2021/03/21 03:35:37;;;;;;;4.38;2.90;;;1.90;55.60;;;;;;5099087;28;20024;-63
2021/03/21 03:38:08;;;;;;;7.18;3.10;;;1.80;55.80;;;;;;5091912;28;20028;-64
2021/03/21 03:40:42;;;;;;;7.30;3.38;;;1.80;55.60;;;;;;5090888;28;20136;-63
2021/03/21 03:43:21;;;;;;;5.38;2.83;;;1.80;55.70;;;;;;5093293;28;20024;-64
2021/03/21 03:46:11;;;;;;;6.97;3.30;;;1.80;55.80;;;;;;5089074;28;20102;-62
2021/03/21 03:49:16;;;;;;;6.43;3.40;;;1.80;56.00;;;;;;5090564;28;20039;-63
2021/03/21 03:52:05;;;;;;;5.38;3.33;;;1.80;56.90;;;;;;5088529;28;20072;-63
2021/03/21 03:54:30;;;;;;;4.47;2.92;;;1.80;56.20;;;;;;5087465;28;20051;-62
2021/03/21 03:57:30;;;;;;;4.97;2.92;;;1.80;56.00;;;;;;5086026;28;20452;-64
2021/03/21 04:00:23;;;;;;;4.68;2.75;;;1.80;56.10;;;;;;5076684;28;20044;-62
2021/03/21 04:03:21;;;;;;;5.93;3.22;;;1.80;56.40;;;;;;5089550;28;20252;-62
2021/03/21 04:06:01;;;;;;;5.28;3.08;;;1.80;56.60;;;;;;5083638;28;20103;-62
2021/03/21 04:08:46;;;;;;;4.70;3.08;;;1.80;56.40;;;;;;5108121;28;20028;-66
2021/03/21 04:11:24;;;;;;;7.25;3.40;;;1.90;56.60;;;;;;5099229;28;20111;-61
2021/03/21 04:14:09;;;;;;;5.85;2.92;;;1.90;56.60;;;;;;5090550;28;20117;-63
2021/03/21 04:16:42;;;;;;;6.80;3.47;;;1.90;57.10;;;;;;5093279;28;20062;-64
2021/03/21 04:19:11;;;;;;;4.85;3.10;;;1.90;57.20;;;;;;5103810;28;20494;-62
2021/03/21 04:21:47;;;;;;;8.17;3.23;;;1.90;57.30;;;;;;5096522;28;20039;-63
2021/03/21 04:24:24;;;;;;;4.25;2.67;;;1.80;57.30;;;;;;5099507;28;20278;-62
2021/03/21 04:27:07;;;;;;;5.85;2.92;;;1.80;57.40;;;;;;5084368;28;20122;-61
2021/03/21 04:30:01;;;;;;;5.18;3.25;;;1.80;57.70;;;;;;5109286;28;20036;-63
2021/03/21 04:32:51;;;;;;;7.32;3.40;;;1.80;58.10;;;;;;5103721;28;20480;-66
2021/03/21 04:35:39;;;;;;;6.15;3.17;;;1.80;58.30;;;;;;5095037;28;20027;-61
2021/03/21 04:38:12;;;;;;;4.90;2.97;;;1.80;58.80;;;;;;5102978;28;20020;-63
2021/03/21 04:40:38;;;;;;;5.88;3.13;;;1.80;58.50;;;;;;5094167;28;20042;-64
2021/03/21 04:43:45;;;;;;;4.03;2.65;;;1.80;58.20;;;;;;5114597;28;20028;-66
2021/03/21 04:46:22;;;;;;;5.50;2.92;;;1.80;58.30;;;;;;5094305;28;20071;-63
2021/03/21 04:48:50;;;;;;;5.65;3.45;;;1.90;58.50;;;;;;5101618;28;20519;-64
2021/03/21 04:51:23;;;;;;;3.55;2.65;;;1.90;58.80;;;;;;5076645;28;20028;-65
2021/03/21 04:53:59;;;;;;;6.80;3.60;;;1.90;58.70;;;;;;5102498;28;20039;-63
2021/03/21 04:56:34;;;;;;;5.47;2.95;;;1.90;58.80;;;;;;5111556;28;20035;-64
2021/03/21 04:59:17;;;;;;;6.10;2.95;;;1.90;59.00;;;;;;5113857;28;20044;-63
2021/03/21 05:02:24;;;;;;;3.83;2.40;;;1.90;58.80;;;;;;5095905;28;20461;-63
2021/03/21 05:04:53;;;;;;;6.88;2.88;;;1.90;59.10;;;;;;5066455;28;20035;-62
2021/03/21 05:07:37;;;;;;;5.93;2.88;;;1.90;59.40;;;;;;5081604;28;20490;-63
2021/03/21 05:10:28;;;;;;;5.15;2.75;;;1.90;59.40;;;;;;5094266;28;20024;-63
2021/03/21 05:13:02;;;;;;;5.10;2.80;;;1.90;59.40;;;;;;5110715;28;20133;-63
2021/03/21 05:15:40;;;;;;;4.57;2.45;;;2.00;59.20;;;;;;5107135;28;20414;-62
2021/03/21 05:18:25;;;;;;;3.75;2.58;;;2.00;59.20;;;;;;5112590;28;20423;-63
2021/03/21 05:21:12;;;;;;;4.78;2.63;;;2.00;59.60;;;;;;5093215;28;20053;-63
2021/03/21 05:24:00;;;;;;;6.65;3.08;;;2.00;59.70;;;;;;5097359;28;20080;-63
2021/03/21 05:26:30;;;;;;;5.20;2.95;;;2.00;60.00;;;;;;5095131;28;20075;-62
2021/03/21 05:29:24;;;;;;;5.70;2.97;;;2.00;60.00;;;;;;5077751;28;20392;-61
2021/03/21 05:31:50;;;;;;;5.15;2.90;;;2.00;60.30;;;;;;5082318;28;20027;-62
2021/03/21 05:34:17;;;;;;;5.57;3.00;;;2.00;60.50;;;;;;5111017;28;20026;-63
2021/03/21 05:37:24;;;;;;;4.03;2.95;;;2.00;60.20;;;;;;5106216;28;20024;-63
2021/03/21 05:40:08;;;;;;;4.55;3.08;;;2.00;60.30;;;;;;5112784;28;20040;-63
2021/03/21 05:42:52;;;;;;;4.80;2.85;;;2.10;60.20;;;;;;5095397;28;20380;-64
2021/03/21 05:45:39;;;;;;;4.28;2.83;;;2.10;60.30;;;;;;5101158;28;20035;-61
2021/03/21 05:48:13;;;;;;;5.38;3.05;;;2.10;60.40;;;;;;5086641;28;20076;-62
2021/03/21 05:51:03;;;;;;;6.60;3.30;;;2.10;60.40;;;;;;5102075;28;20528;-62
2021/03/21 05:53:57;;;;;;;4.22;2.85;;;2.10;60.50;;;;;;5095064;28;20364;-62
2021/03/21 05:56:38;;;;;;;7.03;2.90;;;2.10;60.40;;;;;;5102937;28;20507;-60
2021/03/21 05:59:31;;;;;;;4.75;2.63;;;2.10;60.90;;;;;;5075687;28;20048;-62
2021/03/21 06:02:22;;;;;;;4.43;2.85;;;2.10;60.90;;;;;;5087475;28;20020;-62
2021/03/21 06:05:25;;;;;;;6.55;3.15;;;2.10;60.90;;;;;;5104141;28;20024;-62
2021/03/21 06:08:28;;;;;;;5.50;2.67;;;2.10;60.80;;;;;;5109032;28;20032;-63
2021/03/21 06:11:22;;;;;;;4.63;2.88;;;2.20;60.90;;;;;;5080866;28;20597;-60
2021/03/21 06:14:38;;;;;;;4.95;2.72;;;2.20;61.00;;;;;;5092011;28;20035;-57
2021/03/21 06:17:14;;;;;;;7.70;3.25;;;2.20;61.00;;;;;;5061887;28;20048;-61
2021/03/21 06:20:10;;;;;;;5.65;3.25;;;2.20;61.00;;;;;;5089835;28;20036;-60
2021/03/21 06:22:48;;;;;;;4.18;2.95;;;2.20;61.10;;;;;;5090590;28;20086;-63
2021/03/21 06:25:32;;;;;;;4.30;3.03;;;2.20;61.20;;;;;;5094632;28;20040;-60
2021/03/21 06:28:10;;;;;;;4.93;2.80;;;2.20;60.90;;;;;;5094942;28;20028;-64
2021/03/21 06:30:45;;;;;;;6.35;2.58;;;2.30;60.70;;;;;;5091354;28;20442;-63
2021/03/21 06:33:16;;;;;;;7.00;3.38;;;2.30;60.80;;;;;;5091543;28;20035;-63
2021/03/21 06:35:45;;;;;;;4.80;3.17;;;2.30;61.10;;;;;;5095377;28;20051;-60
2021/03/21 06:38:35;;;;;;;4.45;3.15;;;2.40;60.70;;;;;;5093258;28;20503;-63
2021/03/21 06:41:34;;;;;;;7.05;3.83;;;2.40;60.70;;;;;;5091515;28;20081;-62
2021/03/21 06:44:15;;;;;;;6.70;3.03;;;2.50;60.80;;;;;;5093915;28;20488;-60
2021/03/21 06:46:40;;;;;;;7.75;2.67;;;2.50;60.50;;;;;;5093803;28;20039;-63
2021/03/21 06:49:59;;;;;;;6.20;2.95;;;2.50;60.40;;;;;;5081282;28;20039;-62
2021/03/21 06:52:37;;;;;;;7.20;3.20;;;2.60;60.40;;;;;;5006685;28;20431;-63
2021/03/21 06:55:23;;;;;;;6.05;3.22;;;2.60;60.90;;;;;;5012294;28;20369;-63
2021/03/21 06:58:07;;;;;;;5.68;3.17;;;2.60;60.80;;;;;;5073154;28;20075;-64
2021/03/21 07:00:32;;;;;;;5.70;3.15;;;2.60;61.10;;;;;;5094677;28;20061;-66
2021/03/21 07:03:16;;;;;;;7.50;3.50;;;2.60;61.00;;;;;;5092851;28;20020;-62
2021/03/21 07:05:45;;;;;;;3.78;2.90;;;2.60;61.10;;;;;;5090912;28;20078;-63
2021/03/21 07:08:33;;;;;;;5.88;3.42;;;2.60;61.40;;;;;;5090948;28;20077;-64
2021/03/21 07:11:02;;;;;;;8.10;3.47;;;2.60;61.40;;;;;;5091558;28;20032;-64
2021/03/21 07:13:42;;;;;;;6.93;3.58;;;2.60;61.40;;;;;;5091451;28;20036;-64
2021/03/21 07:16:31;;;;;;;5.75;2.90;;;2.60;61.50;;;;;;5093794;28;20031;-64
2021/03/21 07:19:41;;;;;;;6.60;3.42;;;2.60;61.40;;;;;;5091816;28;20061;-64
2021/03/21 07:22:44;;;;;;;6.85;3.40;;;2.70;61.50;;;;;;5075622;28;20675;-63
2021/03/21 07:25:47;;;;;;;5.18;3.67;;;2.70;61.50;;;;;;5090341;28;20457;-64
2021/03/21 07:28:40;;;;;;;6.18;3.72;;;2.70;61.70;;;;;;5093589;28;20024;-64
2021/03/21 07:31:12;;;;;;;6.35;3.47;;;2.70;61.20;;;;;;5079854;28;20036;-62
2021/03/21 07:34:00;;;;;;;5.32;3.17;;;2.70;61.20;;;;;;5089035;28;20017;-64
2021/03/21 07:36:49;;;;;;;4.07;2.65;;;2.80;61.30;;;;;;5089231;28;20093;-61
2021/03/21 07:39:18;;;;;;;4.55;3.05;;;2.80;61.50;;;;;;5090677;28;20455;-65
2021/03/21 07:42:09;;;;;;;4.60;2.97;;;2.80;61.80;;;;;;5090294;28;20035;-61
2021/03/21 07:44:41;;;;;;;7.65;3.13;;;2.80;61.70;;;;;;5080478;28;20043;-66
2021/03/21 07:47:19;;;;;;;4.60;2.80;;;2.80;61.50;;;;;;5091026;28;20067;-65
2021/03/21 07:50:11;;;;;;;4.20;2.72;;;2.80;61.90;;;;;;5092213;28;20047;-62
2021/03/21 07:53:01;;;;;;;4.20;2.95;;;2.90;62.20;;;;;;5095089;28;20028;-63
2021/03/21 07:55:31;;;;;;;;;;;3.00;61.70;;;;;;5094276;28;20126;-63
2021/03/21 07:58:38;;;;;;;6.05;2.78;;;3.00;61.20;;;;;;5092587;28;19969;-66
2021/03/21 08:01:04;;;;;;;7.28;3.45;;;3.10;61.30;;;;;;5057965;28;20448;-62
2021/03/21 08:04:01;;;;;;;4.53;2.80;;;3.10;60.80;;;;;;5094986;28;20039;-65
2021/03/21 08:06:31;;;;;;;6.90;3.53;;;3.20;61.20;;;;;;5095153;28;20069;-63
2021/03/21 08:09:21;;;;;;;7.80;3.30;;;3.20;61.10;;;;;;5094670;28;20060;-63
2021/03/21 08:11:53;;;;;;;;;;;3.20;61.00;;;;;;5099227;28;20055;-64
2021/03/21 08:14:28;;;;;;;6.55;3.30;;;3.30;61.30;;;;;;5095304;28;19908;-60
2021/03/21 08:16:57;;;;;;;6.00;2.97;;;3.40;59.80;;;;;;5096274;28;20096;-68
2021/03/21 08:19:28;;;;;;;4.63;3.22;;;3.40;59.60;;;;;;5095987;28;20040;-62
2021/03/21 08:21:56;;;;;;;7.40;3.15;;;3.50;59.70;;;;;;5086400;28;20027;-62
2021/03/21 08:24:28;;;;;;;6.32;2.78;;;3.60;59.30;;;;;;5096360;28;20508;-60
2021/03/21 08:26:53;;;;;;;5.93;3.30;;;3.70;59.20;;;;;;5095043;28;20038;-62
2021/03/21 08:29:26;;;;;;;5.47;2.97;;;3.80;59.30;;;;;;5097016;28;20028;-63
2021/03/21 08:32:03;;;;;;;4.75;2.92;;;3.90;59.20;;;;;;5092854;28;20164;-62
2021/03/21 08:34:49;;;;;;;4.70;3.08;;;4.00;59.30;;;;;;5094046;28;20024;-60
2021/03/21 08:37:27;;;;;;;7.60;3.25;;;4.20;58.10;;;;;;5093022;28;20036;-60
2021/03/21 08:40:00;;;;;;;5.20;3.10;;;4.30;58.00;;;;;;5083367;28;20023;-63
2021/03/21 08:42:26;;;;;;;6.88;3.50;;;4.40;58.00;;;;;;5094862;28;20028;-65
2021/03/21 08:44:52;;;;;;;7.32;3.42;;;4.60;58.20;;;;;;5095386;28;20027;-64
2021/03/21 08:47:23;;;;;;;5.63;3.55;;;4.60;58.00;;;;;;5094972;28;20028;-62
2021/03/21 08:49:52;;;;;;;6.13;4.15;;;4.70;57.90;;;;;;5094442;28;20209;-63
2021/03/21 08:52:28;;;;;;;6.68;3.25;;;4.70;57.50;;;;;;5093606;28;20028;-64
2021/03/21 08:54:54;;;;;;;6.18;2.95;;;4.70;57.50;;;;;;5092182;28;20032;-63
2021/03/21 08:57:33;;;;;;;5.07;3.08;;;4.70;57.30;;;;;;5082892;28;20032;-61
2021/03/21 09:00:21;;;;;;;6.75;3.40;;;4.70;57.00;;;;;;5093150;28;20036;-62
2021/03/21 09:02:47;;;;;;;4.75;3.22;;;4.80;56.90;;;;;;5090268;28;20063;-64
2021/03/21 09:05:15;;;;;;;7.63;3.22;;;4.80;56.70;;;;;;5095726;28;20063;-62
2021/03/21 09:08:03;;;;;;;9.48;3.22;;;4.70;57.10;;;;;;5096403;28;20498;-61
2021/03/21 09:10:32;;;;;;;7.53;3.03;;;4.80;57.10;;;;;;5100535;28;20032;-70
2021/03/21 09:13:03;;;;;;;5.45;3.40;;;4.70;57.10;;;;;;5114005;28;20055;-69
2021/03/21 09:15:40;;;;;;;6.72;3.58;;;4.80;59.30;;;;;;5088116;28;20104;-69
2021/03/21 09:18:17;;;;;;;5.53;3.72;;;5.00;61.50;;;;;;5106418;28;20027;-69
2021/03/21 09:20:52;;;;;;;5.93;3.28;;;5.10;58.90;;;;;;5106119;28;20035;-68
2021/03/21 09:23:32;;;;;;;6.07;3.33;;;5.20;58.30;;;;;;5097695;28;20103;-64
2021/03/21 09:25:59;;;;;;;6.82;3.35;;;5.10;59.20;;;;;;5104241;28;20035;-64
2021/03/21 09:28:32;;;;;;;4.72;3.10;;;5.10;61.70;;;;;;5076178;28;20365;-67
2021/03/21 09:31:01;;;;;;;5.88;3.63;;;5.00;60.90;;;;;;5093754;28;20059;-64
2021/03/21 09:33:56;;;;;;;6.40;3.67;;;5.00;61.90;;;;;;5102383;28;20111;-64
2021/03/21 09:36:28;;;;;;;4.75;3.60;;;5.00;61.40;;;;;;5082544;28;20085;-62
2021/03/21 09:39:02;;;;;;;6.57;3.75;;;4.90;60.60;;;;;;5097865;28;20585;-62
2021/03/21 09:41:28;;;;;;;7.32;3.80;;;4.90;61.10;;;;;;5096087;28;20028;-62
2021/03/21 09:44:01;;;;;;;5.13;3.20;;;4.90;58.70;;;;;;5107409;28;20077;-62
2021/03/21 09:46:37;;;;;;;8.18;3.75;;;4.90;57.90;;;;;;5101539;28;20028;-60
2021/03/21 09:49:14;;;;;;;6.65;3.88;;;4.90;58.10;;;;;;5093731;28;20492;-61
2021/03/21 09:51:59;;;;;;;7.63;4.25;;;5.00;58.00;;;;;;5093020;28;20028;-57
2021/03/21 09:54:32;;;;;;;6.55;3.53;;;5.00;58.40;;;;;;5096556;28;20061;-64
2021/03/21 09:57:19;;;;;;;6.82;4.15;;;5.00;58.50;;;;;;5086158;28;20075;-62
2021/03/21 09:59:56;;;;;;;7.38;4.15;;;5.10;57.70;;;;;;5104002;28;20044;-60
2021/03/21 10:02:41;;;;;;;9.55;4.40;;;5.20;57.80;;;;;;5113278;28;20384;-63
2021/03/21 10:05:28;;;;;;;7.50;3.65;;;5.30;57.70;;;;;;5094007;28;20441;-63
2021/03/21 10:08:06;;;;;;;7.75;3.85;;;5.30;58.00;;;;;;5092053;28;20035;-62
2021/03/21 10:10:37;;;;;;;7.75;4.22;;;5.50;58.20;;;;;;5092839;28;20036;-62
2021/03/21 10:13:03;;;;;;;6.53;4.40;;;5.60;59.00;;;;;;5092465;28;20016;-62
2021/03/21 10:15:29;;;;;;;5.68;4.05;;;5.70;60.50;;;;;;5103752;28;20031;-61
2021/03/21 10:18:00;;;;;;;6.38;4.68;;;5.90;60.40;;;;;;5112202;28;20022;-63
2021/03/21 10:20:50;;;;;;;6.22;4.13;;;6.00;60.70;;;;;;5110496;28;20044;-64
2021/03/21 10:23:15;;;;;;;;;;;6.20;64.90;;;;;;5097518;28;20099;-63
2021/03/21 10:25:41;;;;;;;7.30;4.45;;;6.50;73.80;;;;;;5092027;28;20073;-62
2021/03/21 10:28:31;;;;;;;5.20;3.55;;;6.50;70.50;;;;;;5097659;28;20114;-62
2021/03/21 10:31:15;;;;;;;;;;;6.60;69.40;;;;;;5092448;28;20027;-62
2021/03/21 10:33:41;;;;;;;6.60;4.30;;;6.60;70.70;;;;;;5092471;28;20261;-62
2021/03/21 10:36:07;;;;;;;6.20;4.50;;;6.60;71.00;;;;;;5105384;28;20027;-62
2021/03/21 10:38:52;;;;;;;7.07;4.95;;;6.60;69.80;;;;;;5097968;28;20118;-62
2021/03/21 10:41:50;;;;;;;8.63;4.85;;;6.50;69.10;;;;;;5084814;28;20538;-62
2021/03/21 10:44:17;;;;;;;7.80;5.10;;;6.30;69.80;;;;;;5097479;28;20028;-61
2021/03/21 10:47:03;;;;;;;8.27;4.97;;;6.40;69.10;;;;;;5092042;28;20016;-62
2021/03/21 10:49:51;;;;;;;9.65;5.30;;;6.40;69.50;;;;;;5093131;28;20060;-61
2021/03/21 10:52:37;;;;;;;8.98;4.20;;;6.30;70.10;;;;;;5111370;28;20031;-61
2021/03/21 10:55:16;;;;;;;8.00;4.72;;;6.30;71.00;;;;;;5112223;28;20224;-61
2021/03/21 10:57:45;;;;;;;7.35;4.35;;;6.20;72.10;;;;;;5076633;28;20488;-62
2021/03/21 11:00:30;;;;;;;8.35;5.28;;;6.20;74.90;;;;;;5112427;28;20035;-62
2021/03/21 11:02:59;;;;;;;8.20;5.78;;;6.20;76.50;;;;;;5111437;28;20046;-62
2021/03/21 11:05:45;;;;;;;7.25;5.35;;;6.00;76.20;;;;;;5103685;28;20102;-62
2021/03/21 11:08:13;;;;;;;10.82;6.38;;;5.90;76.00;;;;;;5075015;28;20024;-62
2021/03/21 11:10:48;;;;;;;10.05;6.97;;;5.80;75.40;;;;;;5101236;28;20074;-64
2021/03/21 11:13:24;;;;;;;10.27;6.40;;;5.70;75.60;;;;;;5097914;28;20115;-62
2021/03/21 11:15:51;;;;;;;10.65;7.18;;;5.90;75.20;;;;;;5091749;28;20034;-63
2021/03/21 11:18:33;;;;;;;9.85;6.38;;;6.00;75.30;;;;;;5073750;28;20028;-62
2021/03/21 11:21:03;;;;;;;9.60;6.57;;;6.20;74.60;;;;;;5109664;28;20049;-62
2021/03/21 11:23:31;;;;;;;8.48;6.28;;;6.30;74.20;;;;;;5106067;28;20024;-62
2021/03/21 11:25:57;;;;;;;11.98;7.63;;;6.40;72.30;;;;;;5081082;28;20028;-62
2021/03/21 11:28:37;;;;;;;13.45;7.95;;;6.50;72.10;;;;;;5093273;28;20028;-63
2021/03/21 11:31:05;;;;;;;11.73;7.22;;;6.60;72.00;;;;;;5111392;28;20034;-61
2021/03/21 11:33:40;;;;;;;10.07;6.97;;;6.60;71.70;;;;;;5103255;28;20035;-62
2021/03/21 11:36:30;;;;;;;11.02;7.22;;;6.60;70.70;;;;;;5111906;28;20059;-63
2021/03/21 11:38:57;;;;;;;9.25;6.68;;;6.60;70.50;;;;;;5100629;28;20039;-62
2021/03/21 11:41:37;;;;;;;8.73;6.22;;;6.50;70.80;;;;;;5099896;28;20123;-64
2021/03/21 11:44:24;;;;;;;10.13;5.70;;;6.60;70.10;;;;;;5091230;28;20024;-61
2021/03/21 11:46:51;;;;;;;8.05;5.65;;;6.60;69.30;;;;;;5088374;28;20375;-61
2021/03/21 11:49:18;;;;;;;10.77;5.90;;;6.50;68.90;;;;;;5095239;28;20042;-61
2021/03/21 11:51:45;;;;;;;8.07;6.00;;;6.50;68.90;;;;;;5099337;28;20069;-61
2021/03/21 11:54:23;;;;;;;11.27;5.80;;;6.50;69.40;;;;;;5091772;28;20024;-62
2021/03/21 11:56:59;;;;;;;8.73;6.05;;;6.50;70.20;;;;;;5109742;28;20075;-63
2021/03/21 11:59:56;;;;;;;9.35;6.65;;;6.50;70.30;;;;;;5111055;28;20395;-62
2021/03/21 12:02:46;;;;;;;9.25;5.15;;;6.50;71.00;;;;;;5074712;28;20481;-62
2021/03/21 12:05:20;;;;;;;8.65;5.72;;;6.50;71.20;;;;;;5111550;28;20032;-62
2021/03/21 12:07:46;;;;;;;10.18;6.43;;;6.40;69.30;;;;;;5110301;28;20103;-64
2021/03/21 12:10:30;;;;;;;8.82;5.50;;;6.40;69.40;;;;;;5101811;28;20035;-62
2021/03/21 12:12:56;;;;;;;7.20;5.43;;;6.50;70.70;;;;;;5110090;28;20054;-62
2021/03/21 12:15:25;;;;;;;7.82;5.63;;;6.40;71.30;;;;;;5076345;28;20639;-62
2021/03/21 12:18:24;;;;;;;7.75;5.20;;;6.40;71.40;;;;;;5096205;28;20020;-62
2021/03/21 12:20:54;;;;;;;7.40;4.18;;;6.30;71.70;;;;;;5083977;28;20036;-62
2021/03/21 12:23:30;;;;;;;8.45;4.63;;;6.40;73.10;;;;;;5073438;28;20039;-62
2021/03/21 12:26:30;;;;;;;8.10;4.88;;;6.30;75.20;;;;;;5083674;28;20130;-63
2021/03/21 12:29:00;;;;;;;6.97;4.07;;;6.30;74.70;;;;;;5087833;28;20493;-62
2021/03/21 12:31:38;;;;;;;6.57;4.60;;;6.40;74.40;;;;;;5109100;28;20540;-62
2021/03/21 12:34:27;;;;;;;6.97;4.05;;;6.60;74.90;;;;;;5110354;28;20028;-62
2021/03/21 12:37:10;;;;;;;6.43;4.10;;;6.70;75.60;;;;;;5093779;28;20059;-62
2021/03/21 12:39:41;;;;;;;5.30;4.05;;;6.90;76.20;;;;;;5098274;28;20035;-62
2021/03/21 12:42:25;;;;;;;8.70;4.63;;;7.00;80.70;;;;;;5095005;28;20027;-63
2021/03/21 12:45:23;;;;;;;5.07;3.70;;;7.10;81.20;;;;;;5111332;28;20024;-62
2021/03/21 12:47:54;;;;;;;7.07;4.38;;;7.10;80.40;;;;;;5085506;28;20036;-64
2021/03/21 12:50:36;;;;;;;7.43;4.10;;;7.10;80.30;;;;;;5094949;28;20052;-61
2021/03/21 12:53:27;;;;;;;5.78;4.05;;;7.00;80.20;;;;;;5108694;28;20031;-62
2021/03/21 12:55:55;;;;;;;6.93;3.67;;;7.10;80.60;;;;;;5101163;28;20051;-63
2021/03/21 12:58:21;;;;;;;5.00;4.20;;;7.40;89.70;;;;;;5094338;28;20500;-61
2021/03/21 13:00:49;;;;;;;6.72;4.10;;;7.40;74.30;;;;;;5112725;28;20070;-62
2021/03/21 13:03:28;;;;;;;5.82;3.80;;;7.60;72.00;;;;;;5114338;28;20031;-61
2021/03/21 13:05:55;;;;;;;4.65;3.70;;;7.70;72.00;;;;;;5096606;28;20036;-62
2021/03/21 13:08:21;;;;;;;4.85;3.65;;;7.80;71.70;;;;;;5109297;28;20039;-62
2021/03/21 13:10:47;;;;;;;6.10;4.07;;;7.70;71.80;;;;;;5094187;28;20490;-63
2021/03/21 13:13:13;;;;;;;6.07;3.90;;;7.80;72.00;;;;;;5097108;28;20035;-63
2021/03/21 13:15:39;;;;;;;5.60;4.07;;;7.80;72.40;;;;;;5103595;28;20028;-61
2021/03/21 13:18:05;;;;;;;5.95;4.30;;;7.90;72.10;;;;;;5093686;28;20073;-61
2021/03/21 13:20:31;;;;;;;4.78;4.00;;;8.00;71.90;;;;;;5098518;28;20038;-63
2021/03/21 13:22:57;;;;;;;6.28;4.63;;;7.90;71.90;;;;;;5104815;28;20526;-63
2021/03/21 13:25:31;;;;;;;6.10;4.38;;;7.70;72.90;;;;;;5093826;28;20036;-61
2021/03/21 13:27:59;;;;;;;5.93;4.20;;;7.60;73.20;;;;;;5092929;28;20032;-61
2021/03/21 13:30:28;;;;;;;6.57;4.82;;;7.50;73.30;;;;;;5093855;28;20036;-61
2021/03/21 13:32:53;;;;;;;10.85;5.78;;;7.50;73.40;;;;;;5109159;28;20110;-59
2021/03/21 13:35:22;;;;;;;7.13;4.95;;;7.40;74.00;;;;;;5111393;28;20078;-59
2021/03/21 13:37:48;;;;;;;6.60;4.70;;;7.50;73.30;;;;;;5112685;28;20031;-62
2021/03/21 13:40:20;;;;;;;7.25;5.20;;;7.50;73.70;;;;;;5094043;28;20481;-59
2021/03/21 13:42:45;;;;;;;9.55;6.05;;;7.50;73.30;;;;;;5108287;28;20028;-63
2021/03/21 13:45:12;;;;;;;7.03;5.35;;;7.50;73.70;;;;;;5093924;28;20419;-60
2021/03/21 13:47:38;;;;;;;7.43;5.10;;;7.60;73.70;;;;;;5095471;28;20074;-61
2021/03/21 13:50:04;;;;;;;6.70;4.32;;;7.60;73.90;;;;;;5112788;28;20036;-61